createdAt,value
2023-05-17T00:01:17.650Z,14.28
2023-05-17T00:03:50.988Z,15.28
2023-05-17T00:06:24.379Z,12.65
2023-05-17T00:08:57.219Z,19.55
2023-05-17T00:11:30.210Z,17.30
2023-05-17T00:14:03.759Z,19.62
2023-05-17T00:16:37.360Z,14.38
2023-05-17T00:19:10.479Z,14.40
2023-05-17T00:21:43.508Z,17.20
2023-05-17T00:24:16.462Z,15.75
2023-05-17T00:26:49.462Z,13.72
2023-05-17T00:29:22.533Z,15.33
2023-05-17T00:31:55.424Z,15.18
2023-05-17T00:34:28.448Z,16.17
2023-05-17T00:37:01.269Z,17.82
2023-05-17T00:39:34.317Z,13.78
2023-05-17T00:42:07.737Z,16.87
2023-05-17T00:44:41.145Z,14.60
2023-05-17T00:47:14.190Z,12.05
2023-05-17T00:49:47.115Z,15.03
2023-05-17T00:52:20.090Z,13.58
2023-05-17T00:54:54.065Z,12.55
2023-05-17T00:57:28.978Z,17.65
2023-05-17T01:00:02.326Z,13.05
2023-05-17T01:02:35.727Z,18.12
2023-05-17T01:05:09.504Z,17.48
2023-05-17T01:07:42.987Z,15.18
2023-05-17T01:10:16.171Z,15.95
2023-05-17T01:13:11.441Z,14.07
2023-05-17T01:15:48.184Z,18.87
2023-05-17T01:18:47.095Z,17.52
2023-05-17T01:22:01.863Z,15.98
2023-05-17T01:25:00.422Z,37.07
2023-05-17T01:27:34.308Z,18.62
2023-05-17T01:30:08.818Z,23.35
2023-05-17T01:32:43.622Z,14.98
2023-05-17T01:35:17.621Z,16.07
2023-05-17T01:37:51.202Z,22.62
2023-05-17T01:40:24.386Z,17.07
2023-05-17T01:43:12.369Z,20.68
2023-05-17T01:46:06.608Z,26.23
2023-05-17T01:48:44.205Z,17.70
2023-05-17T01:51:20.866Z,18.27
2023-05-17T01:54:00.999Z,15.80
2023-05-17T01:56:36.356Z,13.98
2023-05-17T01:59:09.857Z,16.52
2023-05-17T02:01:44.374Z,24.02
2023-05-17T02:04:17.419Z,20.40
2023-05-17T02:06:50.416Z,17.95
2023-05-17T02:09:23.640Z,19.87
2023-05-17T02:11:56.660Z,21.05
2023-05-17T02:14:30.366Z,17.23
2023-05-17T02:17:05.254Z,21.23
2023-05-17T02:19:38.223Z,20.12
2023-05-17T02:22:12.289Z,18.77
2023-05-17T02:24:45.016Z,16.60
2023-05-17T02:27:18.092Z,16.65
2023-05-17T02:29:50.890Z,24.43
2023-05-17T02:32:24.073Z,18.35
2023-05-17T02:34:57.854Z,19.53
2023-05-17T02:37:30.692Z,21.90
2023-05-17T02:40:04.505Z,17.32
2023-05-17T02:42:39.298Z,19.02
2023-05-17T02:45:12.781Z,16.52
2023-05-17T02:47:45.856Z,16.27
2023-05-17T02:50:19.041Z,17.73
2023-05-17T02:52:51.981Z,17.65
2023-05-17T02:55:25.048Z,19.00
2023-05-17T02:57:58.176Z,20.50
2023-05-17T03:00:31.354Z,18.57
2023-05-17T03:03:04.520Z,18.35
2023-05-17T03:05:37.573Z,18.73
2023-05-17T03:08:10.872Z,21.27
2023-05-17T03:10:43.679Z,20.92
2023-05-17T03:13:17.519Z,18.67
2023-05-17T03:15:50.887Z,19.70
2023-05-17T03:18:24.259Z,14.98
2023-05-17T03:20:59.883Z,17.00
2023-05-17T03:23:33.613Z,19.82
2023-05-17T03:26:08.002Z,15.70
2023-05-17T03:28:43.044Z,16.85
2023-05-17T03:31:15.886Z,18.20
2023-05-17T03:33:49.007Z,17.17
2023-05-17T03:36:22.734Z,17.87
2023-05-17T03:38:55.928Z,16.15
2023-05-17T03:41:29.178Z,17.25
2023-05-17T03:44:02.175Z,15.20
2023-05-17T03:46:36.101Z,18.15
2023-05-17T03:49:09.920Z,14.20
2023-05-17T03:51:43.790Z,22.10
2023-05-17T03:54:16.776Z,17.23
2023-05-17T03:59:23.568Z,13.32
2023-05-17T04:01:56.503Z,13.22
2023-05-17T04:04:29.415Z,17.23
2023-05-17T04:07:02.506Z,16.23
2023-05-17T04:09:35.393Z,13.60
2023-05-17T04:12:09.455Z,16.00
2023-05-17T04:17:16.784Z,17.30
2023-05-17T04:19:51.109Z,15.38
2023-05-17T04:22:25.889Z,17.17
2023-05-17T04:24:58.704Z,19.35
2023-05-17T04:27:32.351Z,17.80
2023-05-17T04:30:05.780Z,21.00
2023-05-17T04:32:38.859Z,24.37
2023-05-17T04:35:11.959Z,14.55
2023-05-17T04:37:46.979Z,21.02
2023-05-17T04:40:25.040Z,17.65
2023-05-17T04:42:58.166Z,22.20
2023-05-17T04:45:33.680Z,17.17
2023-05-17T04:48:07.326Z,14.15
2023-05-17T04:50:40.534Z,15.90
2023-05-17T04:53:13.722Z,15.30
2023-05-17T04:55:48.955Z,18.37
2023-05-17T04:58:22.176Z,19.73
2023-05-17T05:00:56.746Z,17.42
2023-05-17T05:03:29.871Z,19.57
2023-05-17T05:06:04.612Z,12.70
2023-05-17T05:08:38.015Z,12.13
2023-05-17T05:11:12.905Z,14.83
2023-05-17T05:13:46.596Z,14.63
2023-05-17T05:16:19.810Z,15.20
2023-05-17T05:18:54.242Z,10.60
2023-05-17T05:21:27.650Z,9.28
2023-05-17T05:24:00.948Z,11.93
2023-05-17T05:26:34.171Z,9.45
2023-05-17T05:29:08.041Z,12.88
2023-05-17T05:31:41.476Z,7.58
2023-05-17T05:34:14.662Z,9.33
2023-05-17T05:36:47.732Z,7.78
2023-05-17T05:39:20.827Z,8.58
2023-05-17T05:41:53.761Z,20.60
2023-05-17T05:44:26.842Z,10.35
2023-05-17T05:47:00.017Z,8.18
2023-05-17T05:49:33.071Z,9.85
2023-05-17T05:52:06.289Z,7.60
2023-05-17T05:54:39.554Z,7.10
2023-05-17T05:57:12.844Z,14.65
2023-05-17T05:59:46.027Z,4.62
2023-05-17T06:02:20.086Z,8.58
2023-05-17T06:04:52.931Z,6.12
2023-05-17T06:07:25.825Z,6.22
2023-05-17T06:09:58.907Z,9.55
2023-05-17T06:12:32.901Z,6.08
2023-05-17T06:15:06.577Z,6.83
2023-05-17T06:17:39.961Z,6.40
2023-05-17T06:20:13.525Z,5.58
2023-05-17T06:22:46.660Z,9.93
2023-05-17T06:25:19.690Z,6.87
2023-05-17T06:27:52.652Z,9.28
2023-05-17T06:30:27.652Z,4.12
2023-05-17T06:33:01.787Z,13.60
2023-05-17T06:35:47.532Z,9.18
2023-05-17T06:38:09.291Z,7.35
2023-05-17T06:40:42.380Z,7.62
2023-05-17T06:43:15.349Z,5.83
2023-05-17T06:45:48.211Z,7.22
2023-05-17T06:48:21.881Z,10.40
2023-05-17T06:50:54.953Z,12.70
2023-05-17T06:53:28.091Z,8.35
2023-05-17T06:56:01.118Z,7.72
2023-05-17T06:58:35.922Z,7.28
2023-05-17T07:01:09.158Z,11.55
2023-05-17T07:03:44.643Z,8.55
2023-05-17T07:06:17.776Z,8.63
2023-05-17T07:08:51.119Z,6.30
2023-05-17T07:11:24.007Z,7.03
2023-05-17T07:13:56.903Z,7.67
2023-05-17T07:16:29.992Z,8.25
2023-05-17T07:19:02.976Z,3.27
2023-05-17T07:21:37.077Z,11.25
2023-05-17T07:24:10.046Z,3.27
2023-05-17T07:26:44.175Z,3.52
2023-05-17T07:29:17.109Z,4.28
2023-05-17T07:31:51.866Z,5.00
2023-05-17T07:34:24.495Z,10.68
2023-05-17T07:36:59.710Z,5.87
2023-05-17T07:39:32.594Z,4.62
2023-05-17T07:42:05.919Z,4.33
2023-05-17T07:47:11.569Z,3.65
2023-05-17T07:49:44.615Z,4.42
2023-05-17T07:52:17.430Z,4.78
2023-05-17T07:54:50.899Z,5.63
2023-05-17T07:57:24.230Z,2.75
2023-05-17T07:59:56.924Z,4.90
2023-05-17T08:02:29.966Z,8.15
2023-05-17T08:05:02.954Z,2.95
2023-05-17T08:07:36.308Z,2.75
2023-05-17T08:10:09.989Z,5.58
2023-05-17T08:12:43.194Z,2.70
2023-05-17T08:15:16.072Z,6.67
2023-05-17T08:17:49.296Z,2.83
2023-05-17T08:20:23.009Z,4.90
2023-05-17T08:22:56.384Z,3.95
2023-05-17T08:25:29.394Z,5.00
2023-05-17T08:28:03.104Z,6.70
2023-05-17T08:30:36.481Z,5.92
2023-05-17T08:33:11.814Z,7.25
2023-05-17T08:35:44.644Z,6.20
2023-05-17T08:38:20.018Z,8.58
2023-05-17T08:41:00.162Z,10.30
2023-05-17T08:43:33.768Z,9.35
2023-05-17T08:46:06.968Z,6.40
2023-05-17T08:48:42.375Z,6.45
2023-05-17T08:51:15.400Z,6.03
2023-05-17T08:53:50.954Z,5.95
2023-05-17T08:56:25.624Z,5.30
2023-05-17T08:58:59.200Z,5.60
2023-05-17T09:01:33.276Z,4.00
2023-05-17T09:04:07.317Z,4.75
2023-05-17T09:06:40.166Z,4.67
2023-05-17T09:09:13.342Z,4.55
2023-05-17T09:11:47.338Z,4.30
2023-05-17T09:14:20.197Z,5.47
2023-05-17T09:16:58.654Z,7.00
2023-05-17T09:19:33.000Z,3.52
2023-05-17T09:24:37.951Z,5.70
2023-05-17T09:27:10.904Z,4.60
2023-05-17T09:29:45.272Z,7.55
2023-05-17T09:32:21.917Z,5.67
2023-05-17T09:34:56.316Z,4.95
2023-05-17T09:37:29.115Z,5.33
2023-05-17T09:40:04.446Z,7.62
2023-05-17T09:42:39.440Z,6.55
2023-05-17T09:45:14.056Z,4.90
2023-05-17T09:47:48.423Z,5.58
2023-05-17T09:52:55.783Z,10.15
2023-05-17T09:55:30.011Z,5.00
2023-05-17T09:58:06.546Z,5.87
2023-05-17T10:00:39.847Z,6.22
2023-05-17T10:03:14.185Z,4.77
2023-05-17T10:05:48.229Z,4.17
2023-05-17T10:08:26.262Z,3.35
2023-05-17T10:11:11.840Z,3.65
2023-05-17T10:13:51.945Z,5.37
2023-05-17T10:16:25.281Z,4.08
2023-05-17T10:18:58.199Z,7.40
2023-05-17T10:21:34.696Z,4.28
2023-05-17T10:24:08.741Z,4.72
2023-05-17T10:29:14.087Z,4.72
2023-05-17T10:31:47.827Z,3.40
2023-05-17T10:34:22.056Z,6.78
2023-05-17T10:36:55.790Z,3.85
2023-05-17T10:39:29.286Z,4.72
2023-05-17T10:42:14.315Z,5.60
2023-05-17T10:44:39.262Z,13.00
2023-05-17T10:47:13.002Z,7.00
2023-05-17T10:49:48.675Z,5.97
2023-05-17T10:52:24.970Z,5.40
2023-05-17T10:54:58.726Z,5.40
2023-05-17T11:00:13.278Z,2.58
2023-05-17T11:05:28.793Z,4.25
2023-05-17T11:08:20.928Z,3.05
2023-05-17T11:11:14.400Z,4.40
2023-05-17T11:13:53.905Z,2.92
2023-05-17T11:16:39.818Z,4.22
2023-05-17T11:19:13.940Z,4.60
2023-05-17T11:21:50.373Z,3.67
2023-05-17T11:24:28.950Z,4.87
2023-05-17T11:27:02.506Z,3.95
2023-05-17T11:29:35.808Z,2.50
2023-05-17T11:32:11.601Z,4.35
2023-05-17T11:34:44.485Z,7.35
2023-05-17T11:37:21.160Z,6.00
2023-05-17T11:40:10.481Z,6.20
2023-05-17T11:42:45.511Z,2.87
2023-05-17T11:45:18.518Z,3.42
2023-05-17T11:47:52.997Z,3.58
2023-05-17T11:50:26.193Z,6.40
2023-05-17T11:53:00.624Z,5.60
2023-05-17T11:55:34.812Z,5.20
2023-05-17T12:00:45.496Z,5.83
2023-05-17T12:03:25.051Z,4.75
2023-05-17T12:06:16.414Z,5.70
2023-05-17T12:08:50.253Z,7.72
2023-05-17T12:11:24.131Z,8.23
2023-05-17T12:13:57.325Z,6.10
2023-05-17T12:16:32.812Z,7.60
2023-05-17T12:19:06.050Z,10.05
2023-05-17T12:21:41.280Z,11.53
2023-05-17T12:24:14.428Z,5.40
2023-05-17T12:26:50.427Z,7.80
2023-05-17T12:29:25.183Z,5.60
2023-05-17T12:31:58.445Z,5.67
2023-05-17T12:34:32.367Z,7.42
2023-05-17T12:37:07.332Z,10.70
2023-05-17T12:39:41.144Z,8.03
2023-05-17T12:42:14.288Z,13.65
2023-05-17T12:44:47.707Z,11.63
2023-05-17T12:47:20.536Z,22.10
2023-05-17T12:49:59.341Z,17.37
2023-05-17T12:52:38.172Z,13.40
2023-05-17T12:55:14.832Z,15.30
2023-05-17T12:57:57.685Z,11.12
2023-05-17T13:00:31.158Z,8.45
2023-05-17T13:03:06.058Z,16.77
2023-05-17T13:05:41.638Z,11.22
2023-05-17T13:08:24.825Z,11.43
2023-05-17T13:11:12.104Z,8.90
2023-05-17T13:13:44.875Z,8.60
2023-05-17T13:16:17.793Z,11.50
2023-05-17T13:18:53.521Z,9.03
2023-05-17T13:21:27.184Z,11.63
2023-05-17T13:23:59.906Z,9.73
2023-05-17T13:26:33.164Z,8.33
2023-05-17T13:29:06.522Z,9.08
2023-05-17T13:31:39.491Z,14.00
2023-05-17T13:34:12.465Z,11.43
2023-05-17T13:36:45.697Z,14.77
2023-05-17T13:39:19.890Z,12.40
2023-05-17T13:41:53.250Z,9.05
2023-05-17T13:44:26.209Z,10.98
2023-05-17T13:46:59.056Z,10.43
2023-05-17T13:49:32.251Z,29.20
2023-05-17T13:52:06.947Z,10.68
2023-05-17T13:54:40.653Z,9.83
2023-05-17T13:57:13.872Z,6.50
2023-05-17T13:59:47.266Z,7.97
2023-05-17T14:02:20.407Z,7.87
2023-05-17T14:04:53.248Z,7.20
2023-05-17T14:07:26.652Z,11.50
2023-05-17T14:09:59.661Z,12.80
2023-05-17T14:12:32.697Z,9.35
2023-05-17T14:15:06.470Z,13.78
2023-05-17T14:17:39.548Z,10.53
2023-05-17T14:20:14.310Z,6.83
2023-05-17T14:22:47.411Z,6.72
2023-05-17T14:25:20.563Z,16.80
2023-05-17T14:27:54.618Z,8.47
2023-05-17T14:32:59.582Z,13.72
2023-05-17T14:35:32.687Z,6.20
2023-05-17T14:38:05.865Z,6.53
2023-05-17T14:40:39.362Z,9.88
2023-05-17T14:43:12.334Z,7.55
2023-05-17T14:45:45.519Z,9.48
2023-05-17T14:48:18.581Z,7.50
2023-05-17T14:50:53.166Z,6.67
2023-05-17T14:53:29.639Z,5.83
2023-05-17T14:56:02.560Z,7.80
2023-05-17T14:58:36.048Z,5.17
2023-05-17T15:01:09.531Z,6.55
2023-05-17T15:03:42.530Z,7.30
2023-05-17T15:06:15.591Z,10.98
2023-05-17T15:08:48.886Z,6.83
2023-05-17T15:11:22.127Z,13.60
2023-05-17T15:13:55.246Z,10.93
2023-05-17T15:16:28.007Z,6.03
2023-05-17T15:19:02.067Z,13.25
2023-05-17T15:21:35.221Z,6.97
2023-05-17T15:24:08.853Z,10.28
2023-05-17T15:26:43.256Z,8.83
2023-05-17T15:29:16.366Z,11.10
2023-05-17T15:31:49.378Z,9.33
2023-05-17T15:34:24.645Z,7.67
2023-05-17T15:36:58.686Z,9.43
2023-05-17T15:39:31.722Z,9.80
2023-05-17T15:42:04.967Z,8.70
2023-05-17T15:44:37.902Z,10.90
2023-05-17T15:47:10.946Z,10.15
2023-05-17T15:49:43.991Z,8.13
2023-05-17T15:52:16.900Z,9.10
2023-05-17T15:54:50.892Z,13.62
2023-05-17T15:57:23.814Z,10.78
2023-05-17T15:59:57.201Z,16.45
2023-05-17T16:02:30.518Z,13.53
2023-05-17T16:05:04.108Z,16.53
2023-05-17T16:07:37.590Z,14.55
2023-05-17T16:10:12.037Z,14.45
2023-05-17T16:12:45.125Z,11.35
2023-05-17T16:15:18.323Z,12.77
2023-05-17T16:17:53.819Z,10.80
2023-05-17T16:20:27.210Z,13.58
2023-05-17T16:23:00.280Z,13.18
2023-05-17T16:25:33.442Z,17.63
2023-05-17T16:28:06.364Z,17.00
2023-05-17T16:30:39.858Z,25.55
2023-05-17T16:33:14.722Z,18.15
2023-05-17T16:35:52.315Z,26.80
2023-05-17T16:38:25.821Z,23.80
2023-05-17T16:41:00.584Z,19.77
2023-05-17T16:43:33.713Z,15.48
2023-05-17T16:46:06.701Z,16.75
2023-05-17T16:48:39.824Z,26.23
2023-05-17T16:51:12.687Z,17.30
2023-05-17T16:53:45.698Z,15.85
2023-05-17T16:56:18.837Z,15.38
2023-05-17T16:58:53.050Z,16.45
2023-05-17T17:01:26.491Z,16.87
2023-05-17T17:03:59.808Z,25.50
2023-05-17T17:06:34.281Z,17.92
2023-05-17T17:09:08.480Z,15.03
2023-05-17T17:11:41.841Z,21.20
2023-05-17T17:14:15.262Z,19.23
2023-05-17T17:16:48.301Z,16.37
2023-05-17T17:19:22.140Z,25.82
2023-05-17T17:21:55.153Z,39.92
2023-05-17T17:24:28.444Z,33.30
2023-05-17T17:27:01.218Z,30.50
2023-05-17T17:29:34.524Z,21.65
2023-05-17T17:32:09.129Z,22.70
2023-05-17T17:34:42.114Z,19.25
2023-05-17T17:37:15.236Z,14.95
2023-05-17T17:39:48.091Z,16.30
2023-05-17T17:42:21.900Z,19.02
2023-05-17T17:44:55.675Z,22.50
2023-05-17T17:47:28.576Z,20.72
2023-05-17T17:50:01.314Z,23.18
2023-05-17T17:52:34.662Z,18.10
2023-05-17T17:55:10.931Z,15.53
2023-05-17T17:57:43.888Z,17.25
2023-05-17T18:00:17.075Z,14.38
2023-05-17T18:02:50.395Z,15.48
2023-05-17T18:05:25.308Z,16.90
2023-05-17T18:07:58.456Z,15.75
2023-05-17T18:10:31.885Z,17.15
2023-05-17T18:13:05.528Z,17.50
2023-05-17T18:15:38.712Z,20.20
2023-05-17T18:18:12.143Z,19.35
2023-05-17T18:20:45.194Z,24.18
2023-05-17T18:23:18.479Z,17.27
2023-05-17T18:25:52.131Z,22.07
2023-05-17T18:30:59.519Z,24.37
2023-05-17T18:33:34.374Z,17.12
2023-05-17T18:36:07.669Z,15.55
2023-05-17T18:38:41.585Z,24.00
2023-05-17T18:41:14.351Z,17.95
2023-05-17T18:43:47.123Z,20.90
2023-05-17T18:46:20.153Z,19.67
2023-05-17T18:48:52.981Z,19.35
2023-05-17T18:51:26.082Z,21.57
2023-05-17T18:53:58.911Z,19.75
2023-05-17T18:56:33.058Z,23.65
2023-05-17T19:01:38.595Z,21.25
2023-05-17T19:04:11.554Z,19.30
2023-05-17T19:06:44.885Z,21.07
2023-05-17T19:09:17.857Z,26.50
2023-05-17T19:11:50.719Z,25.17
2023-05-17T19:14:24.167Z,28.55
2023-05-17T19:16:57.213Z,31.23
2023-05-17T19:19:31.543Z,24.10
2023-05-17T19:22:05.739Z,24.60
2023-05-17T19:27:13.840Z,19.55
2023-05-17T19:29:49.972Z,24.57
2023-05-17T19:32:23.121Z,24.07
2023-05-17T19:34:56.036Z,21.10
2023-05-17T19:37:29.626Z,26.27
2023-05-17T19:40:02.422Z,30.12
2023-05-17T19:42:35.696Z,28.50
2023-05-17T19:45:11.436Z,23.35
2023-05-17T19:47:45.192Z,27.58
2023-05-17T19:50:18.034Z,31.48
2023-05-17T19:52:51.086Z,26.23
2023-05-17T19:55:25.264Z,30.10
2023-05-17T19:57:58.947Z,33.42
2023-05-17T20:00:33.937Z,30.60
2023-05-17T20:03:07.731Z,31.62
2023-05-17T20:05:41.063Z,27.13
2023-05-17T20:08:13.870Z,25.82
2023-05-17T20:10:46.733Z,29.77
2023-05-17T20:13:21.228Z,25.68
2023-05-17T20:15:54.564Z,25.15
2023-05-17T20:18:30.806Z,31.05
2023-05-17T20:21:03.652Z,24.65
2023-05-17T20:23:36.752Z,25.15
2023-05-17T20:26:11.182Z,25.37
2023-05-17T20:28:45.356Z,24.35
2023-05-17T20:31:18.427Z,26.90
2023-05-17T20:33:52.064Z,31.00
2023-05-17T20:36:26.118Z,30.82
2023-05-17T20:38:59.117Z,33.15
2023-05-17T20:41:32.111Z,32.67
2023-05-17T20:44:05.370Z,26.25
2023-05-17T20:46:38.904Z,30.02
2023-05-17T20:49:12.177Z,28.73
2023-05-17T20:51:45.165Z,31.05
2023-05-17T20:54:17.924Z,37.73
2023-05-17T20:56:50.782Z,30.60
2023-05-17T20:59:24.040Z,34.10
2023-05-17T21:01:56.878Z,33.67
2023-05-17T21:04:29.746Z,26.35
2023-05-17T21:07:02.826Z,30.08
2023-05-17T21:09:36.461Z,29.00
2023-05-17T21:12:09.551Z,30.65
2023-05-17T21:14:42.540Z,39.15
2023-05-17T21:17:15.986Z,27.62
2023-05-17T21:19:48.791Z,30.12
2023-05-17T21:22:21.674Z,29.52
2023-05-17T21:24:54.439Z,27.58
2023-05-17T21:27:27.762Z,33.95
2023-05-17T21:30:01.352Z,27.52
2023-05-17T21:32:34.341Z,33.60
2023-05-17T21:35:07.734Z,25.48
2023-05-17T21:37:42.181Z,29.98
2023-05-17T21:42:48.208Z,29.95
2023-05-17T21:45:22.143Z,25.15
2023-05-17T21:47:54.951Z,24.75
2023-05-17T21:50:28.394Z,28.85
2023-05-17T21:53:01.541Z,30.62
2023-05-17T21:55:40.897Z,34.00
2023-05-17T22:00:40.924Z,33.10
2023-05-17T22:03:13.962Z,40.38
2023-05-17T22:05:46.930Z,42.40
2023-05-17T22:08:19.815Z,46.80
2023-05-17T22:10:54.161Z,45.40
2023-05-17T22:13:29.351Z,53.68
2023-05-17T22:16:02.237Z,54.13
2023-05-17T22:18:36.023Z,50.60
2023-05-17T22:21:09.077Z,44.20
2023-05-17T22:23:42.665Z,48.35
2023-05-17T22:26:15.414Z,48.17
2023-05-17T22:28:48.485Z,46.68
2023-05-17T22:31:21.599Z,46.08
2023-05-17T22:33:54.435Z,43.70
2023-05-17T22:36:27.253Z,42.70
2023-05-17T22:39:01.150Z,44.23
2023-05-17T22:41:34.200Z,41.13
2023-05-17T22:44:07.204Z,41.55
2023-05-17T22:46:42.465Z,40.75
2023-05-17T22:49:17.359Z,41.92
2023-05-17T22:51:50.051Z,39.10
2023-05-17T22:54:22.876Z,43.05
2023-05-17T22:56:55.630Z,38.70
2023-05-17T22:59:28.881Z,38.25
2023-05-17T23:02:03.398Z,35.68
2023-05-17T23:04:38.152Z,37.15
2023-05-17T23:07:10.892Z,31.50
2023-05-17T23:09:43.875Z,34.58
2023-05-17T23:12:17.598Z,32.98
2023-05-17T23:14:50.340Z,32.35
2023-05-17T23:17:23.040Z,29.67
2023-05-17T23:19:56.079Z,34.18
2023-05-17T23:22:31.908Z,36.42
2023-05-17T23:25:06.356Z,33.25
2023-05-17T23:27:39.232Z,29.60
2023-05-17T23:30:12.743Z,31.75
2023-05-17T23:32:47.038Z,37.70
2023-05-17T23:37:52.488Z,30.30
2023-05-17T23:40:26.278Z,31.30
2023-05-17T23:42:59.047Z,33.00
2023-05-17T23:45:32.424Z,36.28
2023-05-17T23:48:05.560Z,29.80
2023-05-17T23:50:39.502Z,29.48
2023-05-17T23:53:12.250Z,30.93
2023-05-17T23:55:46.433Z,29.65
2023-05-17T23:58:19.181Z,34.85
